sensor_id;sensor_type;location;lat;lon;timestamp;temperature;humidity
57857;DHT22;43683;48.650;9.290;2022-10-16T00:01:21;14.90;91.40
57857;DHT22;43683;48.650;9.290;2022-10-16T00:03:47;14.80;91.50
57857;DHT22;43683;48.650;9.290;2022-10-16T00:06:14;14.70;91.60
57857;DHT22;43683;48.650;9.290;2022-10-16T00:08:40;14.70;91.70
57857;DHT22;43683;48.650;9.290;2022-10-16T00:11:09;14.60;91.80
57857;DHT22;43683;48.650;9.290;2022-10-16T00:13:36;14.50;91.90
57857;DHT22;43683;48.650;9.290;2022-10-16T00:16:03;14.50;91.90
57857;DHT22;43683;48.650;9.290;2022-10-16T00:18:29;14.40;92.00
57857;DHT22;43683;48.650;9.290;2022-10-16T00:21:00;14.30;92.10
57857;DHT22;43683;48.650;9.290;2022-10-16T00:23:26;14.30;92.20
57857;DHT22;43683;48.650;9.290;2022-10-16T00:25:59;14.20;92.60
57857;DHT22;43683;48.650;9.290;2022-10-16T00:28:26;14.20;92.40
57857;DHT22;43683;48.650;9.290;2022-10-16T00:30:52;14.10;92.40
57857;DHT22;43683;48.650;9.290;2022-10-16T00:33:17;14.10;92.50
57857;DHT22;43683;48.650;9.290;2022-10-16T00:35:43;14.00;92.50
57857;DHT22;43683;48.650;9.290;2022-10-16T00:38:09;14.00;92.60
57857;DHT22;43683;48.650;9.290;2022-10-16T00:40:34;13.90;92.60
57857;DHT22;43683;48.650;9.290;2022-10-16T00:43:00;13.90;92.70
57857;DHT22;43683;48.650;9.290;2022-10-16T00:45:25;13.90;92.70
57857;DHT22;43683;48.650;9.290;2022-10-16T00:47:52;13.80;92.80
57857;DHT22;43683;48.650;9.290;2022-10-16T00:50:30;13.70;92.90
57857;DHT22;43683;48.650;9.290;2022-10-16T00:52:57;13.70;93.00
57857;DHT22;43683;48.650;9.290;2022-10-16T00:55:24;13.60;93.00
57857;DHT22;43683;48.650;9.290;2022-10-16T00:57:51;13.60;93.00
57857;DHT22;43683;48.650;9.290;2022-10-16T01:00:22;13.60;93.00
57857;DHT22;43683;48.650;9.290;2022-10-16T01:02:59;13.60;93.10
57857;DHT22;43683;48.650;9.290;2022-10-16T01:05:47;13.50;93.20
57857;DHT22;43683;48.650;9.290;2022-10-16T01:08:25;13.50;93.20
57857;DHT22;43683;48.650;9.290;2022-10-16T01:10:59;13.50;93.20
57857;DHT22;43683;48.650;9.290;2022-10-16T01:13:38;13.50;93.20
57857;DHT22;43683;48.650;9.290;2022-10-16T01:16:13;13.50;93.10
57857;DHT22;43683;48.650;9.290;2022-10-16T01:18:44;13.60;93.10
57857;DHT22;43683;48.650;9.290;2022-10-16T01:21:27;13.50;93.10
57857;DHT22;43683;48.650;9.290;2022-10-16T01:29:28;13.40;93.30
57857;DHT22;43683;48.650;9.290;2022-10-16T01:32:00;13.40;93.30
57857;DHT22;43683;48.650;9.290;2022-10-16T01:34:51;13.50;93.20
57857;DHT22;43683;48.650;9.290;2022-10-16T01:37:25;13.50;93.20
57857;DHT22;43683;48.650;9.290;2022-10-16T01:39:55;13.50;93.20
57857;DHT22;43683;48.650;9.290;2022-10-16T01:42:29;13.40;93.30
57857;DHT22;43683;48.650;9.290;2022-10-16T01:44:57;13.30;93.50
57857;DHT22;43683;48.650;9.290;2022-10-16T01:47:25;13.20;93.60
57857;DHT22;43683;48.650;9.290;2022-10-16T01:49:52;13.20;93.60
57857;DHT22;43683;48.650;9.290;2022-10-16T01:52:21;13.10;93.70
57857;DHT22;43683;48.650;9.290;2022-10-16T01:54:50;13.20;93.70
57857;DHT22;43683;48.650;9.290;2022-10-16T01:57:18;13.30;93.60
57857;DHT22;43683;48.650;9.290;2022-10-16T01:59:49;13.30;93.50
57857;DHT22;43683;48.650;9.290;2022-10-16T02:02:17;13.40;93.50
57857;DHT22;43683;48.650;9.290;2022-10-16T02:04:46;13.40;93.30
57857;DHT22;43683;48.650;9.290;2022-10-16T02:07:13;13.50;93.30
57857;DHT22;43683;48.650;9.290;2022-10-16T02:09:39;13.50;93.30
57857;DHT22;43683;48.650;9.290;2022-10-16T02:12:15;13.60;93.20
57857;DHT22;43683;48.650;9.290;2022-10-16T02:14:44;13.60;93.20
57857;DHT22;43683;48.650;9.290;2022-10-16T02:17:16;13.60;93.10
57857;DHT22;43683;48.650;9.290;2022-10-16T02:19:44;13.70;93.20
57857;DHT22;43683;48.650;9.290;2022-10-16T02:22:16;13.70;93.10
57857;DHT22;43683;48.650;9.290;2022-10-16T02:24:57;13.70;93.10
57857;DHT22;43683;48.650;9.290;2022-10-16T02:30:25;13.80;93.20
57857;DHT22;43683;48.650;9.290;2022-10-16T02:32:52;13.80;93.10
57857;DHT22;43683;48.650;9.290;2022-10-16T02:35:20;13.90;93.10
57857;DHT22;43683;48.650;9.290;2022-10-16T02:37:46;13.90;93.00
57857;DHT22;43683;48.650;9.290;2022-10-16T02:40:13;13.90;92.90
57857;DHT22;43683;48.650;9.290;2022-10-16T02:42:40;13.90;92.80
57857;DHT22;43683;48.650;9.290;2022-10-16T02:45:07;13.90;92.90
57857;DHT22;43683;48.650;9.290;2022-10-16T02:47:33;13.90;93.00
57857;DHT22;43683;48.650;9.290;2022-10-16T02:49:59;13.80;93.00
57857;DHT22;43683;48.650;9.290;2022-10-16T02:52:24;13.80;93.10
57857;DHT22;43683;48.650;9.290;2022-10-16T02:54:50;13.80;93.20
57857;DHT22;43683;48.650;9.290;2022-10-16T02:57:15;13.80;93.20
57857;DHT22;43683;48.650;9.290;2022-10-16T02:59:41;13.70;93.20
57857;DHT22;43683;48.650;9.290;2022-10-16T03:02:07;13.70;93.30
57857;DHT22;43683;48.650;9.290;2022-10-16T03:04:32;13.70;93.30
57857;DHT22;43683;48.650;9.290;2022-10-16T03:06:58;13.70;93.40
57857;DHT22;43683;48.650;9.290;2022-10-16T03:09:23;13.70;93.40
57857;DHT22;43683;48.650;9.290;2022-10-16T03:11:49;13.70;93.40
57857;DHT22;43683;48.650;9.290;2022-10-16T03:14:14;13.60;93.40
57857;DHT22;43683;48.650;9.290;2022-10-16T03:16:40;13.60;93.50
57857;DHT22;43683;48.650;9.290;2022-10-16T03:19:05;13.60;93.50
57857;DHT22;43683;48.650;9.290;2022-10-16T03:21:31;13.60;93.60
57857;DHT22;43683;48.650;9.290;2022-10-16T03:23:56;13.50;93.60
57857;DHT22;43683;48.650;9.290;2022-10-16T03:26:22;13.50;93.70
57857;DHT22;43683;48.650;9.290;2022-10-16T03:28:47;13.50;93.70
57857;DHT22;43683;48.650;9.290;2022-10-16T03:31:13;13.50;93.70
57857;DHT22;43683;48.650;9.290;2022-10-16T03:33:39;13.50;93.80
57857;DHT22;43683;48.650;9.290;2022-10-16T03:36:04;13.50;93.80
57857;DHT22;43683;48.650;9.290;2022-10-16T03:38:30;13.50;93.80
57857;DHT22;43683;48.650;9.290;2022-10-16T03:40:55;13.50;93.80
57857;DHT22;43683;48.650;9.290;2022-10-16T03:43:21;13.50;93.80
57857;DHT22;43683;48.650;9.290;2022-10-16T03:45:46;13.50;93.80
57857;DHT22;43683;48.650;9.290;2022-10-16T03:48:12;13.50;93.80
57857;DHT22;43683;48.650;9.290;2022-10-16T03:50:37;13.50;93.80
57857;DHT22;43683;48.650;9.290;2022-10-16T03:53:03;13.50;93.80
57857;DHT22;43683;48.650;9.290;2022-10-16T03:55:29;13.50;93.80
57857;DHT22;43683;48.650;9.290;2022-10-16T03:57:54;13.50;93.90
57857;DHT22;43683;48.650;9.290;2022-10-16T04:00:20;13.50;93.90
57857;DHT22;43683;48.650;9.290;2022-10-16T04:02:45;13.50;94.00
57857;DHT22;43683;48.650;9.290;2022-10-16T04:05:11;13.50;94.10
57857;DHT22;43683;48.650;9.290;2022-10-16T04:07:37;13.50;94.10
57857;DHT22;43683;48.650;9.290;2022-10-16T04:10:03;13.50;94.10
57857;DHT22;43683;48.650;9.290;2022-10-16T04:12:29;13.50;94.10
57857;DHT22;43683;48.650;9.290;2022-10-16T04:14:55;13.50;94.10
57857;DHT22;43683;48.650;9.290;2022-10-16T04:17:20;13.50;94.10
57857;DHT22;43683;48.650;9.290;2022-10-16T04:19:46;13.50;94.10
57857;DHT22;43683;48.650;9.290;2022-10-16T04:22:11;13.40;94.10
57857;DHT22;43683;48.650;9.290;2022-10-16T04:24:37;13.40;94.10
57857;DHT22;43683;48.650;9.290;2022-10-16T04:27:02;13.40;94.20
57857;DHT22;43683;48.650;9.290;2022-10-16T04:29:28;13.40;94.20
57857;DHT22;43683;48.650;9.290;2022-10-16T04:31:53;13.40;94.20
57857;DHT22;43683;48.650;9.290;2022-10-16T04:34:19;13.40;94.20
57857;DHT22;43683;48.650;9.290;2022-10-16T04:36:47;13.40;94.20
57857;DHT22;43683;48.650;9.290;2022-10-16T04:39:13;13.40;94.20
57857;DHT22;43683;48.650;9.290;2022-10-16T04:41:39;13.40;94.10
57857;DHT22;43683;48.650;9.290;2022-10-16T04:44:04;13.40;94.10
57857;DHT22;43683;48.650;9.290;2022-10-16T04:46:30;13.40;94.10
57857;DHT22;43683;48.650;9.290;2022-10-16T04:48:55;13.40;94.10
57857;DHT22;43683;48.650;9.290;2022-10-16T04:51:21;13.40;94.20
57857;DHT22;43683;48.650;9.290;2022-10-16T04:53:46;13.40;94.20
57857;DHT22;43683;48.650;9.290;2022-10-16T04:56:12;13.40;94.20
57857;DHT22;43683;48.650;9.290;2022-10-16T04:58:37;13.40;94.10
57857;DHT22;43683;48.650;9.290;2022-10-16T05:01:03;13.40;94.10
57857;DHT22;43683;48.650;9.290;2022-10-16T05:03:28;13.40;94.10
57857;DHT22;43683;48.650;9.290;2022-10-16T05:05:54;13.50;94.10
57857;DHT22;43683;48.650;9.290;2022-10-16T05:08:20;13.50;94.10
57857;DHT22;43683;48.650;9.290;2022-10-16T05:10:45;13.50;94.10
57857;DHT22;43683;48.650;9.290;2022-10-16T05:13:11;13.50;94.10
57857;DHT22;43683;48.650;9.290;2022-10-16T05:15:37;13.50;94.10
57857;DHT22;43683;48.650;9.290;2022-10-16T05:18:03;13.40;94.10
57857;DHT22;43683;48.650;9.290;2022-10-16T05:20:28;13.50;94.10
57857;DHT22;43683;48.650;9.290;2022-10-16T05:22:54;13.40;94.20
57857;DHT22;43683;48.650;9.290;2022-10-16T05:25:20;13.40;94.20
57857;DHT22;43683;48.650;9.290;2022-10-16T05:27:49;13.40;94.20
57857;DHT22;43683;48.650;9.290;2022-10-16T05:30:15;13.40;94.20
57857;DHT22;43683;48.650;9.290;2022-10-16T05:32:40;13.40;94.20
57857;DHT22;43683;48.650;9.290;2022-10-16T05:35:06;13.30;94.30
57857;DHT22;43683;48.650;9.290;2022-10-16T05:37:32;13.20;94.40
57857;DHT22;43683;48.650;9.290;2022-10-16T05:39:58;13.10;94.60
57857;DHT22;43683;48.650;9.290;2022-10-16T05:42:23;13.00;94.80
57857;DHT22;43683;48.650;9.290;2022-10-16T05:44:49;12.90;94.90
57857;DHT22;43683;48.650;9.290;2022-10-16T05:47:14;12.80;95.00
57857;DHT22;43683;48.650;9.290;2022-10-16T05:49:40;12.80;95.00
57857;DHT22;43683;48.650;9.290;2022-10-16T05:52:05;12.70;95.00
57857;DHT22;43683;48.650;9.290;2022-10-16T05:54:31;12.70;95.10
57857;DHT22;43683;48.650;9.290;2022-10-16T05:56:57;12.60;95.10
57857;DHT22;43683;48.650;9.290;2022-10-16T05:59:22;12.60;95.10
57857;DHT22;43683;48.650;9.290;2022-10-16T06:01:48;12.60;95.10
57857;DHT22;43683;48.650;9.290;2022-10-16T06:04:14;12.60;95.00
57857;DHT22;43683;48.650;9.290;2022-10-16T06:06:39;12.70;95.00
57857;DHT22;43683;48.650;9.290;2022-10-16T06:09:05;12.70;94.90
57857;DHT22;43683;48.650;9.290;2022-10-16T06:11:32;12.80;94.80
57857;DHT22;43683;48.650;9.290;2022-10-16T06:14:00;12.90;94.80
57857;DHT22;43683;48.650;9.290;2022-10-16T06:16:28;13.00;94.70
57857;DHT22;43683;48.650;9.290;2022-10-16T06:18:55;13.00;94.60
57857;DHT22;43683;48.650;9.290;2022-10-16T06:21:26;13.10;94.60
57857;DHT22;43683;48.650;9.290;2022-10-16T06:23:53;13.20;94.60
57857;DHT22;43683;48.650;9.290;2022-10-16T06:26:22;13.40;94.50
57857;DHT22;43683;48.650;9.290;2022-10-16T06:28:48;13.40;94.40
57857;DHT22;43683;48.650;9.290;2022-10-16T06:31:15;13.60;94.30
57857;DHT22;43683;48.650;9.290;2022-10-16T06:33:41;13.70;94.20
57857;DHT22;43683;48.650;9.290;2022-10-16T06:38:35;13.80;94.10
57857;DHT22;43683;48.650;9.290;2022-10-16T06:41:01;13.90;94.10
57857;DHT22;43683;48.650;9.290;2022-10-16T06:43:28;14.00;94.00
57857;DHT22;43683;48.650;9.290;2022-10-16T06:45:58;14.20;93.90
57857;DHT22;43683;48.650;9.290;2022-10-16T06:48:24;14.40;93.80
57857;DHT22;43683;48.650;9.290;2022-10-16T06:53:34;14.80;93.50
57857;DHT22;43683;48.650;9.290;2022-10-16T06:56:11;14.90;93.40
57857;DHT22;43683;48.650;9.290;2022-10-16T06:58:38;15.00;93.40
57857;DHT22;43683;48.650;9.290;2022-10-16T07:01:04;15.10;93.30
57857;DHT22;43683;48.650;9.290;2022-10-16T07:03:30;15.20;93.30
57857;DHT22;43683;48.650;9.290;2022-10-16T07:05:55;15.20;93.10
57857;DHT22;43683;48.650;9.290;2022-10-16T07:08:21;15.30;93.10
57857;DHT22;43683;48.650;9.290;2022-10-16T07:10:47;15.40;93.00
57857;DHT22;43683;48.650;9.290;2022-10-16T07:13:12;15.50;93.00
57857;DHT22;43683;48.650;9.290;2022-10-16T07:15:40;15.60;92.90
57857;DHT22;43683;48.650;9.290;2022-10-16T07:18:05;15.70;92.70
57857;DHT22;43683;48.650;9.290;2022-10-16T07:20:31;15.80;92.60
57857;DHT22;43683;48.650;9.290;2022-10-16T07:22:56;15.90;92.40
57857;DHT22;43683;48.650;9.290;2022-10-16T07:25:22;16.00;92.40
57857;DHT22;43683;48.650;9.290;2022-10-16T07:27:48;16.00;92.30
57857;DHT22;43683;48.650;9.290;2022-10-16T07:30:13;16.10;92.30
57857;DHT22;43683;48.650;9.290;2022-10-16T07:32:39;16.10;92.20
57857;DHT22;43683;48.650;9.290;2022-10-16T07:35:05;16.10;92.30
57857;DHT22;43683;48.650;9.290;2022-10-16T07:37:30;16.10;92.20
57857;DHT22;43683;48.650;9.290;2022-10-16T07:39:56;16.10;92.20
57857;DHT22;43683;48.650;9.290;2022-10-16T07:42:21;16.20;92.20
57857;DHT22;43683;48.650;9.290;2022-10-16T07:44:47;16.30;92.20
57857;DHT22;43683;48.650;9.290;2022-10-16T07:47:12;16.40;92.10
57857;DHT22;43683;48.650;9.290;2022-10-16T07:49:38;16.40;92.00
57857;DHT22;43683;48.650;9.290;2022-10-16T07:52:04;16.50;92.00
57857;DHT22;43683;48.650;9.290;2022-10-16T07:54:29;16.50;91.90
57857;DHT22;43683;48.650;9.290;2022-10-16T07:56:55;16.50;91.90
57857;DHT22;43683;48.650;9.290;2022-10-16T07:59:20;16.60;91.90
57857;DHT22;43683;48.650;9.290;2022-10-16T08:01:46;16.70;91.80
57857;DHT22;43683;48.650;9.290;2022-10-16T08:04:11;16.80;91.70
57857;DHT22;43683;48.650;9.290;2022-10-16T08:06:38;16.90;91.50
57857;DHT22;43683;48.650;9.290;2022-10-16T08:09:05;17.00;91.40
57857;DHT22;43683;48.650;9.290;2022-10-16T08:11:31;17.10;91.30
57857;DHT22;43683;48.650;9.290;2022-10-16T08:13:56;17.10;91.20
57857;DHT22;43683;48.650;9.290;2022-10-16T08:16:22;17.10;91.20
57857;DHT22;43683;48.650;9.290;2022-10-16T08:18:47;17.10;91.20
57857;DHT22;43683;48.650;9.290;2022-10-16T08:21:15;17.10;91.10
57857;DHT22;43683;48.650;9.290;2022-10-16T08:23:41;17.30;91.00
57857;DHT22;43683;48.650;9.290;2022-10-16T08:26:08;17.30;90.90
57857;DHT22;43683;48.650;9.290;2022-10-16T08:28:34;17.50;90.70
57857;DHT22;43683;48.650;9.290;2022-10-16T08:31:07;17.70;90.50
57857;DHT22;43683;48.650;9.290;2022-10-16T08:33:33;17.90;90.10
57857;DHT22;43683;48.650;9.290;2022-10-16T08:36:00;18.20;89.80
57857;DHT22;43683;48.650;9.290;2022-10-16T08:38:26;18.40;89.10
57857;DHT22;43683;48.650;9.290;2022-10-16T08:40:54;18.60;88.90
57857;DHT22;43683;48.650;9.290;2022-10-16T08:43:31;18.80;88.60
57857;DHT22;43683;48.650;9.290;2022-10-16T08:48:57;19.30;87.60
57857;DHT22;43683;48.650;9.290;2022-10-16T08:51:26;19.50;87.20
57857;DHT22;43683;48.650;9.290;2022-10-16T08:54:03;19.50;86.80
57857;DHT22;43683;48.650;9.290;2022-10-16T08:56:29;19.50;86.50
57857;DHT22;43683;48.650;9.290;2022-10-16T08:58:57;19.60;86.80
57857;DHT22;43683;48.650;9.290;2022-10-16T09:01:32;19.50;86.70
57857;DHT22;43683;48.650;9.290;2022-10-16T09:07:46;19.30;86.80
57857;DHT22;43683;48.650;9.290;2022-10-16T09:10:26;19.30;86.90
57857;DHT22;43683;48.650;9.290;2022-10-16T09:15:56;19.60;86.30
57857;DHT22;43683;48.650;9.290;2022-10-16T09:18:48;19.80;85.40
57857;DHT22;43683;48.650;9.290;2022-10-16T09:21:21;19.80;85.30
57857;DHT22;43683;48.650;9.290;2022-10-16T09:23:48;19.90;84.80
57857;DHT22;43683;48.650;9.290;2022-10-16T09:26:16;20.00;84.60
57857;DHT22;43683;48.650;9.290;2022-10-16T09:28:43;20.20;84.30
57857;DHT22;43683;48.650;9.290;2022-10-16T09:31:20;20.30;83.70
57857;DHT22;43683;48.650;9.290;2022-10-16T09:33:57;20.40;83.20
57857;DHT22;43683;48.650;9.290;2022-10-16T09:36:25;20.50;82.80
57857;DHT22;43683;48.650;9.290;2022-10-16T09:39:04;20.70;82.10
57857;DHT22;43683;48.650;9.290;2022-10-16T09:41:30;21.30;80.90
57857;DHT22;43683;48.650;9.290;2022-10-16T09:43:57;21.60;80.60
57857;DHT22;43683;48.650;9.290;2022-10-16T09:46:28;22.00;79.70
57857;DHT22;43683;48.650;9.290;2022-10-16T09:48:59;22.60;78.90
57857;DHT22;43683;48.650;9.290;2022-10-16T09:51:35;22.60;77.50
57857;DHT22;43683;48.650;9.290;2022-10-16T09:54:16;22.50;77.90
57857;DHT22;43683;48.650;9.290;2022-10-16T09:56:42;22.60;77.00
57857;DHT22;43683;48.650;9.290;2022-10-16T09:59:16;22.30;77.80
57857;DHT22;43683;48.650;9.290;2022-10-16T10:01:49;22.10;77.80
57857;DHT22;43683;48.650;9.290;2022-10-16T10:04:16;21.80;78.30
57857;DHT22;43683;48.650;9.290;2022-10-16T10:06:51;21.70;78.20
57857;DHT22;43683;48.650;9.290;2022-10-16T10:09:26;21.60;77.60
57857;DHT22;43683;48.650;9.290;2022-10-16T10:12:00;21.40;77.90
57857;DHT22;43683;48.650;9.290;2022-10-16T10:30:37;25.00;70.50
57857;DHT22;43683;48.650;9.290;2022-10-16T10:38:22;25.30;69.40
57857;DHT22;43683;48.650;9.290;2022-10-16T10:46:50;24.50;69.70
57857;DHT22;43683;48.650;9.290;2022-10-16T10:49:37;24.60;69.80
57857;DHT22;43683;48.650;9.290;2022-10-16T10:52:35;25.10;68.60
57857;DHT22;43683;48.650;9.290;2022-10-16T10:55:18;25.50;67.80
57857;DHT22;43683;48.650;9.290;2022-10-16T11:11:17;25.70;65.00
57857;DHT22;43683;48.650;9.290;2022-10-16T11:14:20;25.60;65.00
57857;DHT22;43683;48.650;9.290;2022-10-16T11:17:02;25.60;64.60
57857;DHT22;43683;48.650;9.290;2022-10-16T11:20:00;25.80;64.30
57857;DHT22;43683;48.650;9.290;2022-10-16T11:22:48;26.30;63.40
57857;DHT22;43683;48.650;9.290;2022-10-16T11:30:25;27.00;61.10
57857;DHT22;43683;48.650;9.290;2022-10-16T11:33:10;27.20;62.80
57857;DHT22;43683;48.650;9.290;2022-10-16T11:46:38;26.20;59.90
57857;DHT22;43683;48.650;9.290;2022-10-16T11:49:10;26.30;59.50
57857;DHT22;43683;48.650;9.290;2022-10-16T11:51:40;26.60;58.50
57857;DHT22;43683;48.650;9.290;2022-10-16T11:56:41;27.00;57.40
57857;DHT22;43683;48.650;9.290;2022-10-16T11:59:23;27.10;56.80
57857;DHT22;43683;48.650;9.290;2022-10-16T12:01:56;27.20;55.90
57857;DHT22;43683;48.650;9.290;2022-10-16T12:04:41;27.30;56.10
57857;DHT22;43683;48.650;9.290;2022-10-16T12:07:24;27.50;55.40
57857;DHT22;43683;48.650;9.290;2022-10-16T12:09:52;27.50;55.10
57857;DHT22;43683;48.650;9.290;2022-10-16T12:12:27;27.60;55.60
57857;DHT22;43683;48.650;9.290;2022-10-16T12:15:25;27.80;55.00
57857;DHT22;43683;48.650;9.290;2022-10-16T12:17:50;28.00;54.10
57857;DHT22;43683;48.650;9.290;2022-10-16T12:20:21;27.90;54.20
57857;DHT22;43683;48.650;9.290;2022-10-16T12:22:52;27.80;54.30
57857;DHT22;43683;48.650;9.290;2022-10-16T12:30:26;28.10;52.90
57857;DHT22;43683;48.650;9.290;2022-10-16T12:33:02;28.20;52.90
57857;DHT22;43683;48.650;9.290;2022-10-16T12:35:34;28.20;51.80
57857;DHT22;43683;48.650;9.290;2022-10-16T12:38:25;28.40;52.10
57857;DHT22;43683;48.650;9.290;2022-10-16T12:41:12;28.40;51.50
57857;DHT22;43683;48.650;9.290;2022-10-16T12:48:37;28.10;51.70
57857;DHT22;43683;48.650;9.290;2022-10-16T12:51:34;28.20;51.50
57857;DHT22;43683;48.650;9.290;2022-10-16T12:54:11;28.30;51.00
57857;DHT22;43683;48.650;9.290;2022-10-16T12:57:05;28.20;50.70
57857;DHT22;43683;48.650;9.290;2022-10-16T12:59:55;27.80;50.70
57857;DHT22;43683;48.650;9.290;2022-10-16T13:05:08;26.90;51.50
57857;DHT22;43683;48.650;9.290;2022-10-16T13:08:10;26.80;51.20
57857;DHT22;43683;48.650;9.290;2022-10-16T13:16:46;26.40;52.10
57857;DHT22;43683;48.650;9.290;2022-10-16T13:19:38;26.60;51.50
57857;DHT22;43683;48.650;9.290;2022-10-16T13:22:34;26.90;50.80
57857;DHT22;43683;48.650;9.290;2022-10-16T13:25:13;27.30;50.60
57857;DHT22;43683;48.650;9.290;2022-10-16T13:27:56;27.80;50.40
57857;DHT22;43683;48.650;9.290;2022-10-16T13:30:27;28.10;49.80
57857;DHT22;43683;48.650;9.290;2022-10-16T13:33:35;27.80;50.00
57857;DHT22;43683;48.650;9.290;2022-10-16T13:35:56;27.40;50.00
57857;DHT22;43683;48.650;9.290;2022-10-16T13:38:24;27.10;51.00
57857;DHT22;43683;48.650;9.290;2022-10-16T13:40:50;26.90;51.20
57857;DHT22;43683;48.650;9.290;2022-10-16T13:43:26;26.60;51.20
57857;DHT22;43683;48.650;9.290;2022-10-16T13:45:54;26.60;51.20
57857;DHT22;43683;48.650;9.290;2022-10-16T13:48:20;26.80;51.30
57857;DHT22;43683;48.650;9.290;2022-10-16T13:50:45;26.90;51.20
57857;DHT22;43683;48.650;9.290;2022-10-16T13:53:14;26.90;50.80
57857;DHT22;43683;48.650;9.290;2022-10-16T13:55:40;26.70;50.40
57857;DHT22;43683;48.650;9.290;2022-10-16T13:58:16;26.40;51.00
57857;DHT22;43683;48.650;9.290;2022-10-16T14:00:54;26.20;50.70
57857;DHT22;43683;48.650;9.290;2022-10-16T14:03:20;26.10;51.30
57857;DHT22;43683;48.650;9.290;2022-10-16T14:05:54;25.90;51.60
57857;DHT22;43683;48.650;9.290;2022-10-16T14:08:21;25.70;51.80
57857;DHT22;43683;48.650;9.290;2022-10-16T14:10:51;25.50;52.10
57857;DHT22;43683;48.650;9.290;2022-10-16T14:13:22;25.30;51.90
57857;DHT22;43683;48.650;9.290;2022-10-16T14:15:51;25.20;52.10
57857;DHT22;43683;48.650;9.290;2022-10-16T14:18:22;25.20;52.30
57857;DHT22;43683;48.650;9.290;2022-10-16T14:20:49;25.10;52.10
57857;DHT22;43683;48.650;9.290;2022-10-16T14:23:31;25.10;52.20
57857;DHT22;43683;48.650;9.290;2022-10-16T14:28:34;25.40;52.10
57857;DHT22;43683;48.650;9.290;2022-10-16T14:31:01;25.30;52.80
57857;DHT22;43683;48.650;9.290;2022-10-16T14:36:14;25.10;52.80
57857;DHT22;43683;48.650;9.290;2022-10-16T14:38:47;25.00;52.90
57857;DHT22;43683;48.650;9.290;2022-10-16T14:41:13;24.90;53.50
57857;DHT22;43683;48.650;9.290;2022-10-16T14:43:41;24.70;54.00
57857;DHT22;43683;48.650;9.290;2022-10-16T14:46:19;24.60;54.00
57857;DHT22;43683;48.650;9.290;2022-10-16T14:48:49;24.40;54.30
57857;DHT22;43683;48.650;9.290;2022-10-16T14:51:19;24.30;54.70
57857;DHT22;43683;48.650;9.290;2022-10-16T14:53:46;24.20;54.50
57857;DHT22;43683;48.650;9.290;2022-10-16T14:56:21;24.20;54.40
57857;DHT22;43683;48.650;9.290;2022-10-16T14:58:48;24.20;54.20
57857;DHT22;43683;48.650;9.290;2022-10-16T15:01:14;24.20;54.30
57857;DHT22;43683;48.650;9.290;2022-10-16T15:03:40;24.00;54.40
57857;DHT22;43683;48.650;9.290;2022-10-16T15:06:11;24.00;55.00
57857;DHT22;43683;48.650;9.290;2022-10-16T15:08:37;23.90;55.30
57857;DHT22;43683;48.650;9.290;2022-10-16T15:11:02;23.90;55.30
57857;DHT22;43683;48.650;9.290;2022-10-16T15:13:28;23.80;55.30
57857;DHT22;43683;48.650;9.290;2022-10-16T15:15:54;23.80;55.20
57857;DHT22;43683;48.650;9.290;2022-10-16T15:18:19;23.60;55.50
57857;DHT22;43683;48.650;9.290;2022-10-16T15:20:48;23.50;55.50
57857;DHT22;43683;48.650;9.290;2022-10-16T15:23:20;23.20;55.50
57857;DHT22;43683;48.650;9.290;2022-10-16T15:25:54;23.10;55.80
57857;DHT22;43683;48.650;9.290;2022-10-16T15:28:22;22.90;56.10
57857;DHT22;43683;48.650;9.290;2022-10-16T15:30:53;22.80;56.40
57857;DHT22;43683;48.650;9.290;2022-10-16T15:33:24;22.70;56.60
57857;DHT22;43683;48.650;9.290;2022-10-16T15:35:52;22.70;57.00
57857;DHT22;43683;48.650;9.290;2022-10-16T15:38:19;22.60;57.40
57857;DHT22;43683;48.650;9.290;2022-10-16T15:40:46;22.50;57.70
57857;DHT22;43683;48.650;9.290;2022-10-16T15:43:12;22.40;57.90
57857;DHT22;43683;48.650;9.290;2022-10-16T15:45:38;22.30;58.10
57857;DHT22;43683;48.650;9.290;2022-10-16T15:48:04;22.20;58.40
57857;DHT22;43683;48.650;9.290;2022-10-16T15:50:30;22.00;58.90
57857;DHT22;43683;48.650;9.290;2022-10-16T15:52:56;21.80;59.50
57857;DHT22;43683;48.650;9.290;2022-10-16T15:55:22;21.60;60.10
57857;DHT22;43683;48.650;9.290;2022-10-16T15:57:48;21.40;60.80
57857;DHT22;43683;48.650;9.290;2022-10-16T16:00:16;21.10;61.70
57857;DHT22;43683;48.650;9.290;2022-10-16T16:02:45;20.90;62.50
57857;DHT22;43683;48.650;9.290;2022-10-16T16:05:14;20.70;63.20
57857;DHT22;43683;48.650;9.290;2022-10-16T16:07:40;20.50;63.80
57857;DHT22;43683;48.650;9.290;2022-10-16T16:10:08;20.30;64.40
57857;DHT22;43683;48.650;9.290;2022-10-16T16:12:38;20.20;65.20
57857;DHT22;43683;48.650;9.290;2022-10-16T16:15:05;20.00;65.70
57857;DHT22;43683;48.650;9.290;2022-10-16T16:17:32;19.80;66.10
57857;DHT22;43683;48.650;9.290;2022-10-16T16:19:57;19.70;66.50
57857;DHT22;43683;48.650;9.290;2022-10-16T16:22:23;19.50;67.00
57857;DHT22;43683;48.650;9.290;2022-10-16T16:24:49;19.40;67.70
57857;DHT22;43683;48.650;9.290;2022-10-16T16:27:14;19.20;68.30
57857;DHT22;43683;48.650;9.290;2022-10-16T16:29:40;19.10;68.90
57857;DHT22;43683;48.650;9.290;2022-10-16T16:32:05;18.90;69.60
57857;DHT22;43683;48.650;9.290;2022-10-16T16:34:31;18.70;70.30
57857;DHT22;43683;48.650;9.290;2022-10-16T16:36:57;18.40;71.70
57857;DHT22;43683;48.650;9.290;2022-10-16T16:39:23;18.30;71.80
57857;DHT22;43683;48.650;9.290;2022-10-16T16:41:48;18.00;72.50
57857;DHT22;43683;48.650;9.290;2022-10-16T16:44:15;17.90;73.20
57857;DHT22;43683;48.650;9.290;2022-10-16T16:46:43;17.70;73.90
57857;DHT22;43683;48.650;9.290;2022-10-16T16:49:10;17.50;74.30
57857;DHT22;43683;48.650;9.290;2022-10-16T16:51:37;17.40;74.90
57857;DHT22;43683;48.650;9.290;2022-10-16T16:54:03;17.20;75.50
57857;DHT22;43683;48.650;9.290;2022-10-16T16:56:28;17.10;76.10
57857;DHT22;43683;48.650;9.290;2022-10-16T16:58:56;17.00;76.60
57857;DHT22;43683;48.650;9.290;2022-10-16T17:01:22;16.80;76.90
57857;DHT22;43683;48.650;9.290;2022-10-16T17:03:51;16.80;76.10
57857;DHT22;43683;48.650;9.290;2022-10-16T17:06:18;16.80;76.30
57857;DHT22;43683;48.650;9.290;2022-10-16T17:08:43;16.80;76.80
57857;DHT22;43683;48.650;9.290;2022-10-16T17:11:14;16.70;77.00
57857;DHT22;43683;48.650;9.290;2022-10-16T17:13:41;16.70;77.60
57857;DHT22;43683;48.650;9.290;2022-10-16T17:16:07;16.70;77.70
57857;DHT22;43683;48.650;9.290;2022-10-16T17:18:33;16.70;78.10
57857;DHT22;43683;48.650;9.290;2022-10-16T17:21:00;16.60;78.50
57857;DHT22;43683;48.650;9.290;2022-10-16T17:23:25;16.50;79.00
57857;DHT22;43683;48.650;9.290;2022-10-16T17:25:51;16.40;79.30
57857;DHT22;43683;48.650;9.290;2022-10-16T17:28:17;16.30;80.00
57857;DHT22;43683;48.650;9.290;2022-10-16T17:30:43;16.20;80.40